Tabas, Iran
Current Conditions -  °F | °C
As of 8:00 AM on Monday 20 Oct 2014 (Local Time) from OIMB Reporting Station
Clear Clear  
Wind Chill: 68°   Ceiling: Unl
Heat Index: 68°   Visibility: 6mi
Dew Point: 30°   Wind: 7mph
Humidity: 24%   Direction: 90°E
Pressure: 30.15"   Gusts: NA
Location:  33.59°N, 56.92°E
Report Text: OIMB 200500Z 09006KT ACVOK 20/M01 Q1021
Loading
Personal Weather Stations






























Interactive Weather Map
Tropical Storm Tracking
New forecast layout! Learn more

10-Day Weather Forecast

Advertisements
Track Severe Weather on mobile